Aviation Digital Data Service (ADDS)

Output produced by METARs form (0033 UTC 23 March 2019)
found at http://www.aviationweather.gov/metar/data/
 
METAR text: KTUS 222353Z 31010G21KT 10SM CLR 20/M02 A3005 RMK AO2 SLP154 T02001017 10211 20156 55007
Conditions at: KTUS (TUCSON , AZ, US) observed 2353 UTC 22 March 2019
Temperature: 20.0°C (68°F)
Dewpoint: -1.7°C (29°F) [RH = 23%]
Pressure (altimeter): 30.05 inches Hg (1017.7 mb)
[Sea-level pressure: 1015.4 mb]
Winds: from the NW (310 degrees) at 12 MPH (10 knots; 5.1 m/s)
gusting to 24 MPH (21 knots; 10.8 m/s)
Visibility: 10 or more miles (16+ km)
Ceiling: at least 12,000 feet AGL
Clouds: sky clear below 12,000 feet AGL
Weather: no significant weather observed at this time

METAR text: KTUS 222253Z 30008G19KT 10SM CLR 20/M04 A3005 RMK AO2 SLP153 T02001044
Conditions at: KTUS (TUCSON , AZ, US) observed 2253 UTC 22 March 2019
Temperature: 20.0°C (68°F)
Dewpoint: -4.4°C (24°F) [RH = 19%]
Pressure (altimeter): 30.05 inches Hg (1017.7 mb)
[Sea-level pressure: 1015.3 mb]
Winds: from the WNW (300 degrees) at 9 MPH (8 knots; 4.1 m/s)
gusting to 22 MPH (19 knots; 9.8 m/s)
Visibility: 10 or more miles (16+ km)
Ceiling: at least 12,000 feet AGL
Clouds: sky clear below 12,000 feet AGL
Weather: no significant weather observed at this time

METAR text: KTUS 222153Z 31008G17KT 10SM CLR 21/M03 A3006 RMK AO2 SLP154 T02061033
Conditions at: KTUS (TUCSON , AZ, US) observed 2153 UTC 22 March 2019
Temperature: 20.6°C (69°F)
Dewpoint: -3.3°C (26°F) [RH = 20%]
Pressure (altimeter): 30.06 inches Hg (1018.0 mb)
[Sea-level pressure: 1015.4 mb]
Winds: from the NW (310 degrees) at 9 MPH (8 knots; 4.1 m/s)
gusting to 20 MPH (17 knots; 8.7 m/s)
Visibility: 10 or more miles (16+ km)
Ceiling: at least 12,000 feet AGL
Clouds: sky clear below 12,000 feet AGL
Weather: no significant weather observed at this time

METAR text: KTUS 222053Z 26007KT 10SM CLR 19/M03 A3007 RMK AO2 SLP161 T01891033 58018
Conditions at: KTUS (TUCSON , AZ, US) observed 2053 UTC 22 March 2019
Temperature: 18.9°C (66°F)
Dewpoint: -3.3°C (26°F) [RH = 22%]
Pressure (altimeter): 30.07 inches Hg (1018.4 mb)
[Sea-level pressure: 1016.1 mb]
Winds: from the W (260 degrees) at 8 MPH (7 knots; 3.6 m/s)
Visibility: 10 or more miles (16+ km)
Ceiling: at least 12,000 feet AGL
Clouds: sky clear below 12,000 feet AGL
Weather: no significant weather observed at this time

METAR text: KTUS 221953Z 27003KT 10SM CLR 18/M04 A3010 RMK AO2 SLP169 T01781039
Conditions at: KTUS (TUCSON , AZ, US) observed 1953 UTC 22 March 2019
Temperature: 17.8°C (64°F)
Dewpoint: -3.9°C (25°F) [RH = 22%]
Pressure (altimeter): 30.10 inches Hg (1019.4 mb)
[Sea-level pressure: 1016.9 mb]
Winds: from the W (270 degrees) at 3 MPH (3 knots; 1.5 m/s)
Visibility: 10 or more miles (16+ km)
Ceiling: at least 12,000 feet AGL
Clouds: sky clear below 12,000 feet AGL
Weather: no significant weather observed at this time

METAR text: KTUS 221853Z 00000KT 10SM CLR 17/M01 A3012 RMK AO2 SLP176 T01671011
Conditions at: KTUS (TUCSON , AZ, US) observed 1853 UTC 22 March 2019
Temperature: 16.7°C (62°F)
Dewpoint: -1.1°C (30°F) [RH = 30%]
Pressure (altimeter): 30.12 inches Hg (1020.1 mb)
[Sea-level pressure: 1017.6 mb]
Winds: calm
Visibility: 10 or more miles (16+ km)
Ceiling: at least 12,000 feet AGL
Clouds: sky clear below 12,000 feet AGL
Weather: no significant weather observed at this time

METAR text: KTUS 221753Z 00000KT 10SM CLR 16/M01 A3013 RMK AO2 SLP182 T01611011 10161 20056 51002
Conditions at: KTUS (TUCSON , AZ, US) observed 1753 UTC 22 March 2019
Temperature: 16.1°C (61°F)
Dewpoint: -1.1°C (30°F) [RH = 31%]
Pressure (altimeter): 30.13 inches Hg (1020.4 mb)
[Sea-level pressure: 1018.2 mb]
Winds: calm
Visibility: 10 or more miles (16+ km)
Ceiling: at least 12,000 feet AGL
Clouds: sky clear below 12,000 feet AGL
Weather: no significant weather observed at this time

METAR text: KTUS 221653Z 00000KT 10SM CLR 14/M01 A3013 RMK AO2 SLP182 T01441006
Conditions at: KTUS (TUCSON , AZ, US) observed 1653 UTC 22 March 2019
Temperature: 14.4°C (58°F)
Dewpoint: -0.6°C (31°F) [RH = 36%]
Pressure (altimeter): 30.13 inches Hg (1020.4 mb)
[Sea-level pressure: 1018.2 mb]
Winds: calm
Visibility: 10 or more miles (16+ km)
Ceiling: at least 12,000 feet AGL
Clouds: sky clear below 12,000 feet AGL
Weather: no significant weather observed at this time

METAR text: KTUS 221553Z 00000KT 10SM CLR 12/00 A3013 RMK AO2 SLP180 T01220000
Conditions at: KTUS (TUCSON , AZ, US) observed 1553 UTC 22 March 2019
Temperature: 12.2°C (54°F)
Dewpoint: 0.0°C (32°F) [RH = 43%]
Pressure (altimeter): 30.13 inches Hg (1020.4 mb)
[Sea-level pressure: 1018.0 mb]
Winds: calm
Visibility: 10 or more miles (16+ km)
Ceiling: at least 12,000 feet AGL
Clouds: sky clear below 12,000 feet AGL
Weather: no significant weather observed at this time

METAR text: KTUS 221453Z 18003KT 10SM CLR 09/01 A3012 RMK AO2 SLP182 T00890006 53018
Conditions at: KTUS (TUCSON , AZ, US) observed 1453 UTC 22 March 2019
Temperature: 8.9°C (48°F)
Dewpoint: 0.6°C (33°F) [RH = 56%]
Pressure (altimeter): 30.12 inches Hg (1020.1 mb)
[Sea-level pressure: 1018.2 mb]
Winds: from the S (180 degrees) at 3 MPH (3 knots; 1.5 m/s)
Visibility: 10 or more miles (16+ km)
Ceiling: at least 12,000 feet AGL
Clouds: sky clear below 12,000 feet AGL
Weather: no significant weather observed at this time

METAR text: KTUS 221353Z 16004KT 10SM CLR 06/01 A3010 RMK AO2 SLP178 T00610006
Conditions at: KTUS (TUCSON , AZ, US) observed 1353 UTC 22 March 2019
Temperature: 6.1°C (43°F)
Dewpoint: 0.6°C (33°F) [RH = 68%]
Pressure (altimeter): 30.10 inches Hg (1019.4 mb)
[Sea-level pressure: 1017.8 mb]
Winds: from the SSE (160 degrees) at 5 MPH (4 knots; 2.1 m/s)
Visibility: 10 or more miles (16+ km)
Ceiling: at least 12,000 feet AGL
Clouds: sky clear below 12,000 feet AGL
Weather: no significant weather observed at this time

METAR text: KTUS 221253Z 16004KT 10SM CLR 06/01 A3008 RMK AO2 SLP169 T00610006
Conditions at: KTUS (TUCSON , AZ, US) observed 1253 UTC 22 March 2019
Temperature: 6.1°C (43°F)
Dewpoint: 0.6°C (33°F) [RH = 68%]
Pressure (altimeter): 30.08 inches Hg (1018.7 mb)
[Sea-level pressure: 1016.9 mb]
Winds: from the SSE (160 degrees) at 5 MPH (4 knots; 2.1 m/s)
Visibility: 10 or more miles (16+ km)
Ceiling: at least 12,000 feet AGL
Clouds: sky clear below 12,000 feet AGL
Weather: no significant weather observed at this time

METAR text: KTUS 221153Z 18003KT 10SM CLR 07/01 A3006 RMK AO2 SLP161 T00720006 10117 20072 53003
Conditions at: KTUS (TUCSON , AZ, US) observed 1153 UTC 22 March 2019
Temperature: 7.2°C (45°F)
Dewpoint: 0.6°C (33°F) [RH = 63%]
Pressure (altimeter): 30.06 inches Hg (1018.0 mb)
[Sea-level pressure: 1016.1 mb]
Winds: from the S (180 degrees) at 3 MPH (3 knots; 1.5 m/s)
Visibility: 10 or more miles (16+ km)
Ceiling: at least 12,000 feet AGL
Clouds: sky clear below 12,000 feet AGL
Weather: no significant weather observed at this time

METAR text: KTUS 221053Z 20006KT 10SM CLR 08/00 A3005 RMK AO2 SLP154 T00830000
Conditions at: KTUS (TUCSON , AZ, US) observed 1053 UTC 22 March 2019
Temperature: 8.3°C (47°F)
Dewpoint: 0.0°C (32°F) [RH = 56%]
Pressure (altimeter): 30.05 inches Hg (1017.7 mb)
[Sea-level pressure: 1015.4 mb]
Winds: from the SSW (200 degrees) at 7 MPH (6 knots; 3.1 m/s)
Visibility: 10 or more miles (16+ km)
Ceiling: at least 12,000 feet AGL
Clouds: sky clear below 12,000 feet AGL
Weather: no significant weather observed at this time

METAR text: KTUS 220953Z 16004KT 10SM CLR 08/01 A3006 RMK AO2 SLP156 T00830011
Conditions at: KTUS (TUCSON , AZ, US) observed 0953 UTC 22 March 2019
Temperature: 8.3°C (47°F)
Dewpoint: 1.1°C (34°F) [RH = 60%]
Pressure (altimeter): 30.06 inches Hg (1018.0 mb)
[Sea-level pressure: 1015.6 mb]
Winds: from the SSE (160 degrees) at 5 MPH (4 knots; 2.1 m/s)
Visibility: 10 or more miles (16+ km)
Ceiling: at least 12,000 feet AGL
Clouds: sky clear below 12,000 feet AGL
Weather: no significant weather observed at this time

METAR text: KTUS 220853Z 24005KT 10SM CLR 09/M01 A3006 RMK AO2 SLP155 T00941006 58003
Conditions at: KTUS (TUCSON , AZ, US) observed 0853 UTC 22 March 2019
Temperature: 9.4°C (49°F)
Dewpoint: -0.6°C (31°F) [RH = 50%]
Pressure (altimeter): 30.06 inches Hg (1018.0 mb)
[Sea-level pressure: 1015.5 mb]
Winds: from the WSW (240 degrees) at 6 MPH (5 knots; 2.6 m/s)
Visibility: 10 or more miles (16+ km)
Ceiling: at least 12,000 feet AGL
Clouds: sky clear below 12,000 feet AGL
Weather: no significant weather observed at this time

METAR text: KTUS 220753Z 31004KT 10SM CLR 11/M01 A3006 RMK AO2 SLP157 T01061006
Conditions at: KTUS (TUCSON , AZ, US) observed 0753 UTC 22 March 2019
Temperature: 10.6°C (51°F)
Dewpoint: -0.6°C (31°F) [RH = 46%]
Pressure (altimeter): 30.06 inches Hg (1018.0 mb)
[Sea-level pressure: 1015.7 mb]
Winds: from the NW (310 degrees) at 5 MPH (4 knots; 2.1 m/s)
Visibility: 10 or more miles (16+ km)
Ceiling: at least 12,000 feet AGL
Clouds: sky clear below 12,000 feet AGL
Weather: no significant weather observed at this time

METAR text: KTUS 220653Z 28004KT 10SM BKN120 11/M01 A3007 RMK AO2 SLP160 T01111006 402000089
Conditions at: KTUS (TUCSON , AZ, US) observed 0653 UTC 22 March 2019
Temperature: 11.1°C (52°F)
Dewpoint: -0.6°C (31°F) [RH = 44%]
Pressure (altimeter): 30.07 inches Hg (1018.4 mb)
[Sea-level pressure: 1016.0 mb]
Winds: from the W (280 degrees) at 5 MPH (4 knots; 2.1 m/s)
Visibility: 10 or more miles (16+ km)
Ceiling: 12000 feet AGL
Clouds: broken clouds at 12000 feet AGL
Weather: no significant weather observed at this time

METAR text: KTUS 220553Z 23004KT 10SM CLR 12/M01 A3007 RMK AO2 SLP159 T01171006 10178 20117 50007
Conditions at: KTUS (TUCSON , AZ, US) observed 0553 UTC 22 March 2019
Temperature: 11.7°C (53°F)
Dewpoint: -0.6°C (31°F) [RH = 43%]
Pressure (altimeter): 30.07 inches Hg (1018.4 mb)
[Sea-level pressure: 1015.9 mb]
Winds: from the SW (230 degrees) at 5 MPH (4 knots; 2.1 m/s)
Visibility: 10 or more miles (16+ km)
Ceiling: at least 12,000 feet AGL
Clouds: sky clear below 12,000 feet AGL
Weather: no significant weather observed at this time

METAR text: KTUS 220453Z 00000KT 10SM CLR 13/M01 A3007 RMK AO2 SLP159 T01331011
Conditions at: KTUS (TUCSON , AZ, US) observed 0453 UTC 22 March 2019
Temperature: 13.3°C (56°F)
Dewpoint: -1.1°C (30°F) [RH = 37%]
Pressure (altimeter): 30.07 inches Hg (1018.4 mb)
[Sea-level pressure: 1015.9 mb]
Winds: calm
Visibility: 10 or more miles (16+ km)
Ceiling: at least 12,000 feet AGL
Clouds: sky clear below 12,000 feet AGL
Weather: no significant weather observed at this time

METAR text: KTUS 220353Z 00000KT 10SM CLR 15/M02 A3005 RMK AO2 SLP152 T01501022
Conditions at: KTUS (TUCSON , AZ, US) observed 0353 UTC 22 March 2019
Temperature: 15.0°C (59°F)
Dewpoint: -2.2°C (28°F) [RH = 30%]
Pressure (altimeter): 30.05 inches Hg (1017.7 mb)
[Sea-level pressure: 1015.2 mb]
Winds: calm
Visibility: 10 or more miles (16+ km)
Ceiling: at least 12,000 feet AGL
Clouds: sky clear below 12,000 feet AGL
Weather: no significant weather observed at this time

METAR text: KTUS 220253Z 33004KT 10SM CLR 16/M03 A3005 RMK AO2 SLP153 T01561028 51005
Conditions at: KTUS (TUCSON , AZ, US) observed 0253 UTC 22 March 2019
Temperature: 15.6°C (60°F)
Dewpoint: -2.8°C (27°F) [RH = 28%]
Pressure (altimeter): 30.05 inches Hg (1017.7 mb)
[Sea-level pressure: 1015.3 mb]
Winds: from the NNW (330 degrees) at 5 MPH (4 knots; 2.1 m/s)
Visibility: 10 or more miles (16+ km)
Ceiling: at least 12,000 feet AGL
Clouds: sky clear below 12,000 feet AGL
Weather: no significant weather observed at this time

METAR text: KTUS 220153Z 34007KT 10SM CLR 16/M03 A3005 RMK AO2 SLP153 T01611028
Conditions at: KTUS (TUCSON , AZ, US) observed 0153 UTC 22 March 2019
Temperature: 16.1°C (61°F)
Dewpoint: -2.8°C (27°F) [RH = 27%]
Pressure (altimeter): 30.05 inches Hg (1017.7 mb)
[Sea-level pressure: 1015.3 mb]
Winds: from the NNW (340 degrees) at 8 MPH (7 knots; 3.6 m/s)
Visibility: 10 or more miles (16+ km)
Ceiling: at least 12,000 feet AGL
Clouds: sky clear below 12,000 feet AGL
Weather: no significant weather observed at this time

METAR text: KTUS 220053Z 33010KT 10SM SCT110 17/M02 A3004 RMK AO2 SLP150 T01671022
Conditions at: KTUS (TUCSON , AZ, US) observed 0053 UTC 22 March 2019
Temperature: 16.7°C (62°F)
Dewpoint: -2.2°C (28°F) [RH = 27%]
Pressure (altimeter): 30.04 inches Hg (1017.4 mb)
[Sea-level pressure: 1015.0 mb]
Winds: from the NNW (330 degrees) at 12 MPH (10 knots; 5.1 m/s)
Visibility: 10 or more miles (16+ km)
Ceiling: at least 12,000 feet AGL
Clouds: scattered clouds at 11000 feet AGL
Weather: no significant weather observed at this time

METAR text: KTUS 212353Z 35012KT 10SM CLR 18/M04 A3003 RMK AO2 SLP147 T01781039 10200 20172 56008
Conditions at: KTUS (TUCSON , AZ, US) observed 2353 UTC 21 March 2019
Temperature: 17.8°C (64°F)
Dewpoint: -3.9°C (25°F) [RH = 22%]
Pressure (altimeter): 30.03 inches Hg (1017.0 mb)
[Sea-level pressure: 1014.7 mb]
Winds: from the N (350 degrees) at 14 MPH (12 knots; 6.2 m/s)
Visibility: 10 or more miles (16+ km)
Ceiling: at least 12,000 feet AGL
Clouds: sky clear below 12,000 feet AGL
Weather: no significant weather observed at this time

METAR text: KTUS 212253Z 28011KT 10SM CLR 19/M01 A3004 RMK AO2 SLP147 T01891006
Conditions at: KTUS (TUCSON , AZ, US) observed 2253 UTC 21 March 2019
Temperature: 18.9°C (66°F)
Dewpoint: -0.6°C (31°F) [RH = 27%]
Pressure (altimeter): 30.04 inches Hg (1017.4 mb)
[Sea-level pressure: 1014.7 mb]
Winds: from the W (280 degrees) at 13 MPH (11 knots; 5.7 m/s)
Visibility: 10 or more miles (16+ km)
Ceiling: at least 12,000 feet AGL
Clouds: sky clear below 12,000 feet AGL
Weather: no significant weather observed at this time

METAR text: KTUS 212153Z 31006KT 10SM CLR 19/01 A3004 RMK AO2 SLP146 T01940011
Conditions at: KTUS (TUCSON , AZ, US) observed 2153 UTC 21 March 2019
Temperature: 19.4°C (67°F)
Dewpoint: 1.1°C (34°F) [RH = 29%]
Pressure (altimeter): 30.04 inches Hg (1017.4 mb)
[Sea-level pressure: 1014.6 mb]
Winds: from the NW (310 degrees) at 7 MPH (6 knots; 3.1 m/s)
Visibility: 10 or more miles (16+ km)
Ceiling: at least 12,000 feet AGL
Clouds: sky clear below 12,000 feet AGL
Weather: no significant weather observed at this time

METAR text: KTUS 212053Z 10SM CLR 19/01 A3006 RMK AO2 SLP152 T01890011 58020
Conditions at: KTUS (TUCSON , AZ, US) observed 2053 UTC 21 March 2019
Temperature: 18.9°C (66°F)
Dewpoint: 1.1°C (34°F) [RH = 30%]
Pressure (altimeter): 30.06 inches Hg (1018.0 mb)
[Sea-level pressure: 1015.2 mb]
Winds: missing
Visibility: 10 or more miles (16+ km)
Ceiling: at least 12,000 feet AGL
Clouds: sky clear below 12,000 feet AGL
Weather: no significant weather observed at this time

METAR text: KTUS 211953Z 25006G14KT 10SM CLR 19/02 A3009 RMK AO2 SLP162 T01890017
Conditions at: KTUS (TUCSON , AZ, US) observed 1953 UTC 21 March 2019
Temperature: 18.9°C (66°F)
Dewpoint: 1.7°C (35°F) [RH = 32%]
Pressure (altimeter): 30.09 inches Hg (1019.0 mb)
[Sea-level pressure: 1016.2 mb]
Winds: from the WSW (250 degrees) at 7 MPH (6 knots; 3.1 m/s)
gusting to 16 MPH (14 knots; 7.2 m/s)
Visibility: 10 or more miles (16+ km)
Ceiling: at least 12,000 feet AGL
Clouds: sky clear below 12,000 feet AGL
Weather: no significant weather observed at this time

METAR text: KTUS 211853Z 33007KT 10SM CLR 18/02 A3011 RMK AO2 SLP168 T01830017
Conditions at: KTUS (TUCSON , AZ, US) observed 1853 UTC 21 March 2019
Temperature: 18.3°C (65°F)
Dewpoint: 1.7°C (35°F) [RH = 33%]
Pressure (altimeter): 30.11 inches Hg (1019.7 mb)
[Sea-level pressure: 1016.8 mb]
Winds: from the NNW (330 degrees) at 8 MPH (7 knots; 3.6 m/s)
Visibility: 10 or more miles (16+ km)
Ceiling: at least 12,000 feet AGL
Clouds: sky clear below 12,000 feet AGL
Weather: no significant weather observed at this time

METAR text: KTUS 211753Z 34007KT 300V020 10SM CLR 17/02 A3012 RMK AO2 SLP173 T01720022 10172 20089 50002
Conditions at: KTUS (TUCSON , AZ, US) observed 1753 UTC 21 March 2019
Temperature: 17.2°C (63°F)
Dewpoint: 2.2°C (36°F) [RH = 36%]
Pressure (altimeter): 30.12 inches Hg (1020.1 mb)
[Sea-level pressure: 1017.3 mb]
Winds: from the NNW (340 degrees) at 8 MPH (7 knots; 3.6 m/s)
Visibility: 10 or more miles (16+ km)
Ceiling: at least 12,000 feet AGL
Clouds: sky clear below 12,000 feet AGL
Weather: no significant weather observed at this time

METAR text: KTUS 211653Z 34009KT 10SM CLR 16/04 A3012 RMK AO2 SLP174 T01610039
Conditions at: KTUS (TUCSON , AZ, US) observed 1653 UTC 21 March 2019
Temperature: 16.1°C (61°F)
Dewpoint: 3.9°C (39°F) [RH = 44%]
Pressure (altimeter): 30.12 inches Hg (1020.1 mb)
[Sea-level pressure: 1017.4 mb]
Winds: from the NNW (340 degrees) at 10 MPH (9 knots; 4.6 m/s)
Visibility: 10 or more miles (16+ km)
Ceiling: at least 12,000 feet AGL
Clouds: sky clear below 12,000 feet AGL
Weather: no significant weather observed at this time

METAR text: KTUS 211553Z 10SM CLR 14/04 A3012 RMK AO2 SLP172 T01440044
Conditions at: KTUS (TUCSON , AZ, US) observed 1553 UTC 21 March 2019
Temperature: 14.4°C (58°F)
Dewpoint: 4.4°C (40°F) [RH = 51%]
Pressure (altimeter): 30.12 inches Hg (1020.1 mb)
[Sea-level pressure: 1017.2 mb]
Winds: missing
Visibility: 10 or more miles (16+ km)
Ceiling: at least 12,000 feet AGL
Clouds: sky clear below 12,000 feet AGL
Weather: no significant weather observed at this time

METAR text: KTUS 211453Z 20003KT 10SM CLR 12/03 A3011 RMK AO2 SLP171 T01170033 53019
Conditions at: KTUS (TUCSON , AZ, US) observed 1453 UTC 21 March 2019
Temperature: 11.7°C (53°F)
Dewpoint: 3.3°C (38°F) [RH = 56%]
Pressure (altimeter): 30.11 inches Hg (1019.7 mb)
[Sea-level pressure: 1017.1 mb]
Winds: from the SSW (200 degrees) at 3 MPH (3 knots; 1.5 m/s)
Visibility: 10 or more miles (16+ km)
Ceiling: at least 12,000 feet AGL
Clouds: sky clear below 12,000 feet AGL
Weather: no significant weather observed at this time

METAR text: KTUS 211353Z 15005KT 10SM CLR 10/03 A3009 RMK AO2 SLP163 T01000033
Conditions at: KTUS (TUCSON , AZ, US) observed 1353 UTC 21 March 2019
Temperature: 10.0°C (50°F)
Dewpoint: 3.3°C (38°F) [RH = 63%]
Pressure (altimeter): 30.09 inches Hg (1019.0 mb)
[Sea-level pressure: 1016.3 mb]
Winds: from the SSE (150 degrees) at 6 MPH (5 knots; 2.6 m/s)
Visibility: 10 or more miles (16+ km)
Ceiling: at least 12,000 feet AGL
Clouds: sky clear below 12,000 feet AGL
Weather: no significant weather observed at this time

METAR text: KTUS 211253Z 03003KT 10SM CLR 10/03 A3007 RMK AO2 SLP155 T01000028
Conditions at: KTUS (TUCSON , AZ, US) observed 1253 UTC 21 March 2019
Temperature: 10.0°C (50°F)
Dewpoint: 2.8°C (37°F) [RH = 61%]
Pressure (altimeter): 30.07 inches Hg (1018.4 mb)
[Sea-level pressure: 1015.5 mb]
Winds: from the NNE (30 degrees) at 3 MPH (3 knots; 1.5 m/s)
Visibility: 10 or more miles (16+ km)
Ceiling: at least 12,000 feet AGL
Clouds: sky clear below 12,000 feet AGL
Weather: no significant weather observed at this time

Forecast for: KTUS (TUCSON , AZ, US)
Text: KTUS 222340Z 2300/2324 31009G19KT P6SM SKC
Forecast period: 0000 to 0300 UTC 23 March 2019
Forecast type: FROM: standard forecast or significant change
Winds: from the NW (310 degrees) at 10 MPH (9 knots; 4.6 m/s)
gusting to 22 MPH (19 knots; 9.8 m/s)
Visibility: 6 or more miles 10+ km)
Clouds: clear skies
Weather: no significant weather forecast for this period
Text: FM230300 17005KT P6SM SCT250
Forecast period: 0300 to 1800 UTC 23 March 2019
Forecast type: FROM: standard forecast or significant change
Winds: from the S (170 degrees) at 6 MPH (5 knots; 2.6 m/s)
Visibility: 6 or more miles 10+ km)
Ceiling: at least 12,000 feet AGL
Clouds: scattered clouds at 25000 feet AGL
Weather: no significant weather forecast for this period
Text: FM231800 29005KT P6SM SKC
Forecast period: 1800 UTC 23 March 2019 to 0000 UTC 24 March 2019
Forecast type: FROM: standard forecast or significant change
Winds: from the WNW (290 degrees) at 6 MPH (5 knots; 2.6 m/s)
Visibility: 6 or more miles 10+ km)
Clouds: clear skies
Weather: no significant weather forecast for this period